createdAt,value
2018-04-14T00:00:01.748Z,0
2018-04-14T00:00:42.152Z,0
2018-04-14T00:01:22.471Z,0
2018-04-14T00:02:02.859Z,0
2018-04-14T00:02:43.526Z,0
2018-04-14T00:03:23.690Z,0
2018-04-14T00:04:04.141Z,0
2018-04-14T00:04:44.484Z,0
2018-04-14T00:05:24.866Z,0
2018-04-14T00:06:05.313Z,0
2018-04-14T00:06:45.635Z,0
2018-04-14T00:07:26.012Z,0
2018-04-14T00:08:06.389Z,0
2018-04-14T00:08:46.774Z,0
2018-04-14T00:09:27.167Z,0
2018-04-14T00:10:07.634Z,0
2018-04-14T00:10:47.988Z,0
2018-04-14T00:11:28.366Z,0
2018-04-14T00:12:08.805Z,0
2018-04-14T00:12:49.218Z,0
2018-04-14T00:13:29.612Z,0
2018-04-14T00:14:09.976Z,0
2018-04-14T00:14:50.427Z,0
2018-04-14T00:15:30.757Z,0
2018-04-14T00:16:11.148Z,0
2018-04-14T00:16:51.563Z,0
2018-04-14T00:17:31.899Z,0
2018-04-14T00:18:12.328Z,0
2018-04-14T00:18:52.770Z,0
2018-04-14T00:19:33.195Z,0
2018-04-14T00:20:13.628Z,0
2018-04-14T00:20:54.020Z,0
2018-04-14T00:21:34.449Z,0
2018-04-14T00:22:14.858Z,0
2018-04-14T00:22:55.223Z,0
2018-04-14T00:23:35.674Z,0
2018-04-14T00:24:15.995Z,0
2018-04-14T00:24:56.428Z,0
2018-04-14T00:25:36.776Z,0
2018-04-14T00:26:17.197Z,0
2018-04-14T00:26:57.668Z,0
2018-04-14T00:27:38.003Z,0
2018-04-14T00:28:18.358Z,0
2018-04-14T00:28:58.775Z,0
2018-04-14T00:29:39.149Z,0
2018-04-14T00:30:19.528Z,0
2018-04-14T00:31:00.018Z,0
2018-04-14T00:31:40.355Z,0
2018-04-14T00:32:20.703Z,0
2018-04-14T00:33:01.172Z,0
2018-04-14T00:33:41.502Z,0
2018-04-14T00:34:21.882Z,0
2018-04-14T00:35:02.269Z,0
2018-04-14T00:35:42.669Z,0
2018-04-14T00:36:23.108Z,0
2018-04-14T00:37:03.456Z,0
2018-04-14T00:37:43.848Z,0
2018-04-14T00:38:24.355Z,0
2018-04-14T00:39:04.656Z,0
2018-04-14T00:39:45.115Z,0
2018-04-14T00:40:25.432Z,0
2018-04-14T00:41:05.846Z,0
2018-04-14T00:41:46.271Z,0
2018-04-14T00:42:26.653Z,0
2018-04-14T00:43:07.066Z,0
2018-04-14T00:43:47.425Z,0
2018-04-14T00:44:27.808Z,0
2018-04-14T00:45:08.218Z,0
2018-04-14T00:45:48.608Z,0
2018-04-14T00:46:29.062Z,0
2018-04-14T00:47:09.460Z,0
2018-04-14T00:47:49.794Z,0
2018-04-14T00:48:30.191Z,0
2018-04-14T00:49:10.657Z,0
2018-04-14T00:49:51.008Z,0
2018-04-14T00:50:31.377Z,0
2018-04-14T00:51:11.773Z,0
2018-04-14T00:51:52.182Z,0
2018-04-14T00:52:32.584Z,0
2018-04-14T00:53:13.015Z,0
2018-04-14T00:53:53.370Z,0
2018-04-14T00:54:33.815Z,0
2018-04-14T00:55:14.202Z,0
2018-04-14T00:55:54.536Z,0
2018-04-14T00:56:34.998Z,0
2018-04-14T00:57:15.392Z,0
2018-04-14T00:57:55.774Z,0
2018-04-14T00:58:36.138Z,0
2018-04-14T00:59:16.548Z,0
2018-04-14T00:59:56.978Z,0
2018-04-14T01:00:37.381Z,0
2018-04-14T01:01:17.764Z,0
2018-04-14T01:01:58.117Z,0
2018-04-14T01:02:38.546Z,0
2018-04-14T01:03:18.936Z,0
2018-04-14T01:03:59.291Z,0
2018-04-14T01:04:39.727Z,0
2018-04-14T01:05:20.103Z,0
2018-04-14T01:06:00.481Z,0
2018-04-14T01:06:40.849Z,0
2018-04-14T01:07:21.242Z,0
2018-04-14T01:08:01.623Z,0
2018-04-14T01:08:42.119Z,0
2018-04-14T01:09:22.436Z,0
2018-04-14T01:10:02.879Z,0
2018-04-14T01:10:43.261Z,0
2018-04-14T01:11:23.677Z,0
2018-04-14T01:12:04.080Z,0
2018-04-14T01:12:44.455Z,0
2018-04-14T01:13:24.947Z,0
2018-04-14T01:14:05.297Z,0
2018-04-14T01:14:45.744Z,0
2018-04-14T01:15:26.685Z,0
2018-04-14T01:16:07.142Z,0
2018-04-14T01:16:47.489Z,0
2018-04-14T01:17:27.983Z,0
2018-04-14T01:18:08.392Z,0
2018-04-14T01:18:48.735Z,0
2018-04-14T01:19:29.214Z,0
2018-04-14T01:20:09.751Z,0
2018-04-14T01:20:50.044Z,0
2018-04-14T01:21:30.633Z,0
2018-04-14T01:22:10.818Z,0
2018-04-14T01:22:51.275Z,0
2018-04-14T01:23:31.683Z,0
2018-04-14T01:24:12.009Z,0
2018-04-14T01:24:52.441Z,0
2018-04-14T01:25:32.810Z,0
2018-04-14T01:26:13.273Z,0
2018-04-14T01:26:53.641Z,0
2018-04-14T01:27:34.106Z,0
2018-04-14T01:28:14.440Z,0
2018-04-14T01:28:54.863Z,0
2018-04-14T01:29:35.249Z,0
2018-04-14T01:30:15.582Z,0
2018-04-14T01:30:56.034Z,0
2018-04-14T01:31:36.394Z,0
2018-04-14T01:32:16.747Z,0
2018-04-14T01:32:57.258Z,0
2018-04-14T01:33:37.564Z,0
2018-04-14T01:34:17.965Z,0
2018-04-14T01:34:58.338Z,0
2018-04-14T01:35:38.741Z,0
2018-04-14T01:36:19.148Z,0
2018-04-14T01:36:59.515Z,0
2018-04-14T01:37:39.925Z,0
2018-04-14T01:38:20.316Z,0
2018-04-14T01:39:00.743Z,0
2018-04-14T01:39:41.124Z,0
2018-04-14T01:40:21.592Z,0
2018-04-14T01:41:01.949Z,0
2018-04-14T01:41:42.357Z,0
2018-04-14T01:42:22.708Z,0
2018-04-14T01:43:03.124Z,0
2018-04-14T01:43:43.545Z,0
2018-04-14T01:44:23.927Z,0
2018-04-14T01:45:04.267Z,0
2018-04-14T01:45:44.698Z,0
2018-04-14T01:46:25.113Z,0
2018-04-14T01:47:05.506Z,0
2018-04-14T01:47:45.904Z,0
2018-04-14T01:48:26.231Z,0
2018-04-14T01:49:06.721Z,0
2018-04-14T01:49:47.038Z,0
2018-04-14T01:50:27.479Z,0
2018-04-14T01:51:07.775Z,0
2018-04-14T01:51:48.195Z,0
2018-04-14T01:52:28.575Z,0
2018-04-14T01:53:09.022Z,0
2018-04-14T01:53:49.362Z,0
2018-04-14T01:54:29.752Z,0
2018-04-14T01:55:10.207Z,0
2018-04-14T01:55:50.554Z,0
2018-04-14T01:56:30.947Z,0
2018-04-14T01:57:11.377Z,0
2018-04-14T01:57:51.686Z,0
2018-04-14T01:58:32.129Z,0
2018-04-14T01:59:12.557Z,0
2018-04-14T01:59:52.885Z,0
2018-04-14T02:00:33.268Z,0
2018-04-14T02:01:13.660Z,0
2018-04-14T02:01:54.049Z,0
2018-04-14T02:02:34.413Z,0
2018-04-14T02:03:14.829Z,0
2018-04-14T02:03:55.225Z,0
2018-04-14T02:04:35.639Z,0
2018-04-14T02:05:16.029Z,0
2018-04-14T02:05:56.423Z,0
2018-04-14T02:06:36.793Z,0
2018-04-14T02:07:17.207Z,0
2018-04-14T02:07:57.577Z,0
2018-04-14T02:08:37.986Z,0
2018-04-14T02:09:18.430Z,0
2018-04-14T02:09:58.789Z,0
2018-04-14T02:10:39.167Z,0
2018-04-14T02:11:19.607Z,0
2018-04-14T02:12:00.066Z,0
2018-04-14T02:12:40.373Z,0
2018-04-14T02:13:20.819Z,0
2018-04-14T02:14:01.263Z,0
2018-04-14T02:14:41.700Z,0
2018-04-14T02:15:21.995Z,0
2018-04-14T02:16:02.403Z,0
2018-04-14T02:16:42.810Z,0
2018-04-14T02:17:23.258Z,0
2018-04-14T02:18:03.664Z,0
2018-04-14T02:18:44.013Z,0
2018-04-14T02:19:24.395Z,0
2018-04-14T02:20:04.847Z,0
2018-04-14T02:20:45.255Z,0
2018-04-14T02:21:25.662Z,0
2018-04-14T02:22:06.016Z,0
2018-04-14T02:22:46.471Z,0
2018-04-14T02:23:26.828Z,0
2018-04-14T02:24:07.350Z,0
2018-04-14T02:24:47.686Z,0
2018-04-14T02:25:28.095Z,0
2018-04-14T02:26:08.503Z,0
2018-04-14T02:26:48.918Z,0
2018-04-14T02:27:29.319Z,0
2018-04-14T02:28:09.726Z,0
2018-04-14T02:28:50.146Z,0
2018-04-14T02:29:30.643Z,0
2018-04-14T02:30:10.942Z,0
2018-04-14T02:30:51.483Z,0
2018-04-14T02:31:31.742Z,0
2018-04-14T02:32:12.119Z,0
2018-04-14T02:32:52.559Z,0
2018-04-14T02:33:32.903Z,0
2018-04-14T02:34:13.322Z,0
2018-04-14T02:34:53.738Z,0
2018-04-14T02:35:34.051Z,0
2018-04-14T02:36:14.461Z,0
2018-04-14T02:36:54.857Z,0
2018-04-14T02:37:35.221Z,0
2018-04-14T02:38:15.650Z,0
2018-04-14T02:38:56.035Z,0
2018-04-14T02:39:36.492Z,0
2018-04-14T02:40:16.843Z,0
2018-04-14T02:40:57.242Z,0
2018-04-14T02:41:37.589Z,0
2018-04-14T02:42:17.993Z,0
2018-04-14T02:42:58.338Z,0
2018-04-14T02:43:38.792Z,0
2018-04-14T02:44:19.213Z,0
2018-04-14T02:44:59.579Z,0
2018-04-14T02:45:39.968Z,0
2018-04-14T02:46:20.383Z,0
2018-04-14T02:47:00.744Z,0
2018-04-14T02:47:41.133Z,0
2018-04-14T02:48:21.512Z,0
2018-04-14T02:49:01.911Z,0
2018-04-14T02:49:42.344Z,0
2018-04-14T02:50:22.690Z,0
2018-04-14T02:51:03.120Z,0
2018-04-14T02:51:43.548Z,0
2018-04-14T02:52:23.890Z,0
2018-04-14T02:53:04.322Z,0
2018-04-14T02:53:44.704Z,0
2018-04-14T02:54:25.055Z,0
2018-04-14T02:55:05.501Z,0
2018-04-14T02:55:45.927Z,0
2018-04-14T02:56:26.293Z,0
2018-04-14T02:57:06.643Z,0
2018-04-14T02:57:47.031Z,0
2018-04-14T02:58:27.464Z,0
2018-04-14T02:59:07.902Z,0
2018-04-14T02:59:48.313Z,0
2018-04-14T03:00:28.678Z,0
2018-04-14T03:01:09.055Z,0
2018-04-14T03:01:49.466Z,0
2018-04-14T03:02:29.849Z,0
2018-04-14T03:03:10.290Z,0
2018-04-14T03:03:50.676Z,0
2018-04-14T03:04:31.099Z,0
2018-04-14T03:05:11.538Z,0
2018-04-14T03:05:51.870Z,0
2018-04-14T03:06:32.266Z,0
2018-04-14T03:07:12.670Z,0
2018-04-14T03:07:53.034Z,0
2018-04-14T03:08:33.441Z,0
2018-04-14T03:09:13.870Z,0
2018-04-14T03:09:54.256Z,0
2018-04-14T03:10:34.616Z,0
2018-04-14T03:11:15.037Z,0
2018-04-14T03:11:55.453Z,0
2018-04-14T03:12:35.782Z,0
2018-04-14T03:13:16.165Z,0
2018-04-14T03:13:56.615Z,0
2018-04-14T03:14:37.007Z,0
2018-04-14T03:15:17.452Z,0
2018-04-14T03:15:57.798Z,0
2018-04-14T03:16:38.229Z,0
2018-04-14T03:17:18.614Z,0
2018-04-14T03:17:58.964Z,0
2018-04-14T03:18:39.374Z,0
2018-04-14T03:19:19.856Z,0
2018-04-14T03:20:00.164Z,0
2018-04-14T03:20:40.594Z,0
2018-04-14T03:21:20.919Z,0
2018-04-14T03:22:01.339Z,0
2018-04-14T03:22:41.764Z,0
2018-04-14T03:23:22.163Z,0
2018-04-14T03:24:02.556Z,0
2018-04-14T03:24:42.976Z,0
2018-04-14T03:25:23.300Z,0
2018-04-14T03:26:03.701Z,0
2018-04-14T03:26:44.098Z,0
2018-04-14T03:27:24.505Z,0
2018-04-14T03:28:04.906Z,0
2018-04-14T03:28:45.359Z,0
2018-04-14T03:29:25.724Z,0
2018-04-14T03:30:06.151Z,0
2018-04-14T03:30:46.495Z,0
2018-04-14T03:31:27.001Z,0
2018-04-14T03:32:07.296Z,0
2018-04-14T03:32:47.748Z,0
2018-04-14T03:33:28.070Z,0
2018-04-14T03:34:08.520Z,0
2018-04-14T03:34:48.849Z,0
2018-04-14T03:35:29.255Z,0
2018-04-14T03:36:09.650Z,0
2018-04-14T03:36:50.037Z,0
2018-04-14T03:37:30.489Z,0
2018-04-14T03:38:10.833Z,0
2018-04-14T03:38:51.196Z,0
2018-04-14T03:39:31.636Z,0
2018-04-14T03:40:12.001Z,0
2018-04-14T03:40:52.459Z,0
2018-04-14T03:41:32.801Z,0
2018-04-14T03:42:13.202Z,0
2018-04-14T03:42:53.575Z,0
2018-04-14T03:43:33.980Z,0
2018-04-14T03:44:14.337Z,0
2018-04-14T03:44:54.770Z,0
2018-04-14T03:45:35.134Z,0
2018-04-14T03:46:15.555Z,0
2018-04-14T03:46:55.928Z,0
2018-04-14T03:47:36.313Z,0
2018-04-14T03:48:16.697Z,0
2018-04-14T03:48:57.113Z,0
2018-04-14T03:49:37.509Z,0
2018-04-14T03:50:17.881Z,0
2018-04-14T03:50:58.284Z,0
2018-04-14T03:51:38.693Z,0
2018-04-14T03:52:19.115Z,0
2018-04-14T03:52:59.527Z,0
2018-04-14T03:53:39.925Z,0
2018-04-14T03:54:20.271Z,0
2018-04-14T03:55:00.725Z,0
2018-04-14T03:55:41.142Z,0
2018-04-14T03:56:21.462Z,0
2018-04-14T03:57:01.855Z,0
2018-04-14T03:57:42.322Z,0
2018-04-14T03:58:22.675Z,0
2018-04-14T03:59:03.086Z,0
2018-04-14T03:59:43.459Z,0
2018-04-14T04:00:23.866Z,0
2018-04-14T04:01:04.236Z,0
2018-04-14T04:44:48.454Z,100
2018-04-14T04:45:28.849Z,100
2018-04-14T04:46:09.232Z,108
2018-04-14T04:46:49.646Z,108
2018-04-14T04:47:30.045Z,112
2018-04-14T04:48:10.421Z,116
2018-04-14T04:48:50.949Z,120
2018-04-14T04:49:31.188Z,124
2018-04-14T04:50:11.598Z,124
2018-04-14T04:50:52.000Z,128
2018-04-14T04:51:32.372Z,136
2018-04-14T04:52:12.762Z,144
2018-04-14T04:52:53.166Z,156
2018-04-14T04:53:33.559Z,168
2018-04-14T04:54:13.938Z,176
2018-04-14T04:54:54.305Z,196
2018-04-14T04:55:34.767Z,208
2018-04-14T04:56:15.059Z,216
2018-04-14T04:56:55.470Z,228
2018-04-14T04:57:35.840Z,240
2018-04-14T04:59:33.300Z,268
2018-04-14T05:00:13.680Z,276
2018-04-14T05:00:54.062Z,268
2018-04-14T05:01:34.494Z,272
2018-04-14T05:02:14.922Z,276
2018-04-14T05:02:55.299Z,272
2018-04-14T05:03:35.667Z,276
2018-04-14T05:04:16.128Z,272
2018-04-14T05:04:56.507Z,292
2018-04-14T05:05:36.897Z,304
2018-04-14T05:06:17.312Z,336
2018-04-14T05:06:57.639Z,352
2018-04-14T05:07:38.089Z,376
2018-04-14T05:08:18.443Z,392
2018-04-14T05:08:58.832Z,400
2018-04-14T05:09:39.223Z,396
2018-04-14T05:10:19.605Z,460
2018-04-14T05:10:59.988Z,480
2018-04-14T05:11:40.473Z,484
2018-04-14T05:12:20.943Z,480
2018-04-14T05:13:01.430Z,512
2018-04-14T05:13:41.826Z,552
2018-04-14T05:14:22.127Z,572
2018-04-14T05:15:02.530Z,576
2018-04-14T05:15:42.970Z,576
2018-04-14T05:16:23.320Z,592
2018-04-14T05:17:03.679Z,604
2018-04-14T05:17:44.074Z,616
2018-04-14T05:18:24.487Z,612
2018-04-14T05:19:04.814Z,592
2018-04-14T05:19:45.243Z,588
2018-04-14T05:20:25.666Z,612
2018-04-14T05:21:06.058Z,704
2018-04-14T05:21:46.418Z,600
2018-04-14T05:22:26.819Z,532
2018-04-14T05:23:07.278Z,480
2018-04-14T05:23:47.688Z,488
2018-04-14T05:24:27.980Z,484
2018-04-14T05:25:08.396Z,396
2018-04-14T05:25:48.827Z,352
2018-04-14T05:26:29.154Z,336
2018-04-14T05:27:09.526Z,320
2018-04-14T05:27:49.951Z,312
2018-04-14T05:28:30.309Z,300
2018-04-14T05:29:10.695Z,344
2018-04-14T05:29:51.136Z,392
2018-04-14T05:30:31.521Z,300
2018-04-14T05:31:11.838Z,288
2018-04-14T05:31:52.286Z,292
2018-04-14T05:32:32.667Z,300
2018-04-14T05:33:13.033Z,312
2018-04-14T05:33:53.432Z,324
2018-04-14T05:34:33.829Z,336
2018-04-14T05:35:14.245Z,356
2018-04-14T05:35:54.612Z,380
2018-04-14T05:36:35.018Z,400
2018-04-14T05:37:15.408Z,444
2018-04-14T05:37:55.785Z,480
2018-04-14T05:38:36.169Z,544
2018-04-14T05:39:16.545Z,600
2018-04-14T05:39:56.981Z,672
2018-04-14T05:40:37.365Z,720
2018-04-14T05:41:17.802Z,756
2018-04-14T05:41:58.198Z,764
2018-04-14T05:42:38.566Z,752
2018-04-14T05:43:18.934Z,736
2018-04-14T05:43:59.356Z,724
2018-04-14T05:44:39.722Z,748
2018-04-14T05:45:20.121Z,804
2018-04-14T05:46:00.577Z,884
2018-04-14T05:46:41.006Z,944
2018-04-14T05:47:21.313Z,984
2018-04-14T05:48:01.724Z,1008
2018-04-14T05:48:42.135Z,1004
2018-04-14T05:49:22.608Z,980
2018-04-14T05:50:02.934Z,968
2018-04-14T05:50:43.369Z,1004
2018-04-14T05:51:23.764Z,1048
2018-04-14T05:52:04.143Z,1068
2018-04-14T05:52:44.528Z,1072
2018-04-14T05:53:24.943Z,1052
2018-04-14T05:54:05.323Z,1012
2018-04-14T05:54:45.707Z,972
2018-04-14T05:55:26.115Z,968
2018-04-14T05:56:06.513Z,992
2018-04-14T05:56:46.982Z,1056
2018-04-14T05:57:27.316Z,1172
2018-04-14T05:58:07.743Z,1336
2018-04-14T05:58:48.100Z,1492
2018-04-14T05:59:28.538Z,1664
2018-04-14T06:00:08.922Z,1868
2018-04-14T06:00:49.254Z,2264
2018-04-14T06:01:29.636Z,2720
2018-04-14T06:02:10.025Z,3340
2018-04-14T06:02:50.411Z,3452
2018-04-14T06:03:30.820Z,2900
2018-04-14T06:04:11.205Z,3232
2018-04-14T06:04:51.631Z,6200
2018-04-14T06:05:32.000Z,4852
2018-04-14T06:06:12.393Z,8300
2018-04-14T06:06:52.788Z,11232
2018-04-14T06:07:33.210Z,11200
2018-04-14T06:08:13.628Z,12288
2018-04-14T06:08:54.017Z,12192
2018-04-14T06:09:34.401Z,12032
2018-04-14T06:10:14.875Z,11552
2018-04-14T06:10:55.225Z,12384
2018-04-14T06:11:35.926Z,13120
2018-04-14T06:12:16.301Z,13920
2018-04-14T06:12:56.368Z,14624
2018-04-14T06:13:36.738Z,15136
2018-04-14T06:14:17.134Z,14752
2018-04-14T06:14:57.608Z,14720
2018-04-14T06:15:37.914Z,14656
2018-04-14T06:16:18.395Z,15136
2018-04-14T06:16:58.770Z,15872
2018-04-14T06:17:39.199Z,16192
2018-04-14T06:18:19.565Z,16704
2018-04-14T06:18:59.966Z,16768
2018-04-14T06:19:40.313Z,15456
2018-04-14T06:20:20.744Z,14816
2018-04-14T06:21:01.122Z,13728
2018-04-14T06:21:41.495Z,13792
2018-04-14T06:22:21.964Z,13184
2018-04-14T06:23:02.310Z,12512
2018-04-14T06:23:42.738Z,12096
2018-04-14T06:24:23.111Z,11676
2018-04-14T06:25:03.517Z,11852
2018-04-14T06:27:21.162Z,11112
2018-04-14T06:28:01.559Z,10996
2018-04-14T06:28:41.895Z,10932
2018-04-14T06:29:22.316Z,10712
2018-04-14T06:30:02.676Z,10492
2018-04-14T06:30:43.090Z,9988
2018-04-14T06:31:23.457Z,9992
2018-04-14T06:32:03.859Z,9860
2018-04-14T06:32:44.293Z,9980
2018-04-14T06:33:24.710Z,10312
2018-04-14T06:34:05.037Z,10128
2018-04-14T06:34:45.452Z,10520
2018-04-14T06:35:25.858Z,10660
2018-04-14T06:36:06.233Z,10728
2018-04-14T06:36:46.664Z,10548
2018-04-14T06:37:27.045Z,10920
2018-04-14T06:38:07.469Z,10764
2018-04-14T06:38:47.897Z,11096
2018-04-14T06:39:28.255Z,11128
2018-04-14T06:40:08.689Z,11360
2018-04-14T06:40:49.035Z,11256
2018-04-14T06:41:29.444Z,11340
2018-04-14T06:42:09.850Z,11416
2018-04-14T06:42:50.238Z,11528
2018-04-14T06:43:30.637Z,11316
2018-04-14T06:44:11.071Z,11364
2018-04-14T06:44:51.468Z,11392
2018-04-14T06:45:31.940Z,11708
2018-04-14T06:46:12.284Z,11716
2018-04-14T06:46:52.709Z,11752
2018-04-14T06:47:33.118Z,11912
2018-04-14T06:48:13.493Z,12044
2018-04-14T06:48:53.913Z,12188
2018-04-14T06:49:34.309Z,12408
2018-04-14T06:50:14.742Z,12440
2018-04-14T06:50:55.172Z,12128
2018-04-14T06:51:35.557Z,12080
2018-04-14T06:52:15.975Z,12088
2018-04-14T06:52:56.413Z,12316
2018-04-14T06:53:36.865Z,12572
2018-04-14T06:54:17.197Z,12728
2018-04-14T06:54:57.575Z,12672
2018-04-14T06:55:38.013Z,12604
2018-04-14T06:56:18.402Z,12500
2018-04-14T06:56:58.820Z,12148
2018-04-14T06:57:39.196Z,11832
2018-04-14T06:58:19.660Z,11608
2018-04-14T06:59:00.111Z,11488
2018-04-14T06:59:40.490Z,11600
2018-04-14T07:00:20.836Z,11596
2018-04-14T07:01:01.236Z,11580
2018-04-14T07:01:41.736Z,11468
2018-04-14T07:02:22.086Z,11328
2018-04-14T07:03:02.486Z,11256
2018-04-14T07:03:42.852Z,11304
2018-04-14T07:04:23.274Z,11400
2018-04-14T07:05:03.665Z,11344
2018-04-14T07:05:44.068Z,11252
2018-04-14T07:06:24.570Z,11216
2018-04-14T07:07:04.882Z,11116
2018-04-14T07:07:45.327Z,11004
2018-04-14T07:08:25.708Z,10804
2018-04-14T07:09:06.120Z,10596
2018-04-14T07:09:46.511Z,10460
2018-04-14T07:10:26.941Z,10412
2018-04-14T07:11:07.355Z,10556
2018-04-14T07:11:47.792Z,10680
2018-04-14T07:12:28.212Z,10424
2018-04-14T07:13:08.666Z,9940
2018-04-14T07:13:49.071Z,9748
2018-04-14T07:14:29.560Z,9544
2018-04-14T07:15:09.915Z,9524
2018-04-14T07:15:50.274Z,9428
2018-04-14T07:16:30.681Z,9320
2018-04-14T07:17:11.061Z,9228
2018-04-14T07:17:51.459Z,9344
2018-04-14T07:18:31.856Z,9448
2018-04-14T07:19:12.284Z,9576
2018-04-14T07:19:52.697Z,9796
2018-04-14T07:20:33.400Z,10024
2018-04-14T07:21:13.800Z,10084
2018-04-14T07:21:54.225Z,9992
2018-04-14T07:22:34.622Z,9972
2018-04-14T07:23:15.011Z,9908
2018-04-14T07:23:55.462Z,10140
2018-04-14T07:24:35.822Z,10052
2018-04-14T07:25:16.280Z,10120
2018-04-14T07:25:56.649Z,10228
2018-04-14T07:26:37.111Z,9876
2018-04-14T07:27:17.585Z,8984
2018-04-14T07:27:57.833Z,8372
2018-04-14T07:28:38.288Z,7964
2018-04-14T07:29:18.770Z,7772
2018-04-14T07:29:59.235Z,7668
2018-04-14T07:30:39.550Z,7592
2018-04-14T07:31:20.045Z,7556
2018-04-14T07:32:00.430Z,7436
2018-04-14T07:32:40.799Z,7336
2018-04-14T07:33:21.150Z,7264
2018-04-14T07:34:01.613Z,7272
2018-04-14T07:34:41.930Z,7248
2018-04-14T07:35:22.390Z,7204
2018-04-14T07:36:02.775Z,7164
2018-04-14T07:36:43.128Z,7200
2018-04-14T07:37:23.678Z,7184
2018-04-14T07:38:04.036Z,7128
2018-04-14T07:38:44.474Z,7016
2018-04-14T07:39:24.806Z,6960
2018-04-14T07:40:05.232Z,6872
2018-04-14T07:40:45.595Z,6772
2018-04-14T07:42:43.339Z,6636
2018-04-14T07:43:23.720Z,6568
2018-04-14T07:44:04.344Z,6544
2018-04-14T07:44:44.788Z,6520
2018-04-14T07:45:25.236Z,6408
2018-04-14T07:46:05.664Z,6452
2018-04-14T07:46:46.193Z,6400
2018-04-14T07:47:26.603Z,6356
2018-04-14T07:48:07.074Z,6300
2018-04-14T07:48:47.563Z,6264
2018-04-14T07:49:27.934Z,6248
2018-04-14T07:50:08.523Z,6252
2018-04-14T07:50:48.821Z,6248
2018-04-14T07:51:29.266Z,6212
2018-04-14T07:52:11.294Z,6200
2018-04-14T07:52:51.781Z,6156
2018-04-14T07:53:32.282Z,6120
2018-04-14T07:54:12.654Z,6092
2018-04-14T07:54:53.156Z,6092
2018-04-14T07:55:33.519Z,6076
2018-04-14T07:56:14.032Z,6020
2018-04-14T07:56:54.339Z,5920
2018-04-14T07:57:34.748Z,5812
2018-04-14T07:58:15.193Z,5720
2018-04-14T07:58:55.477Z,5624
2018-04-14T07:59:35.926Z,5548
2018-04-14T08:00:16.272Z,5516
2018-04-14T08:00:56.775Z,5440
2018-04-14T08:01:37.080Z,5312
2018-04-14T08:02:17.484Z,5264
2018-04-14T08:02:57.971Z,5240
2018-04-14T08:03:38.394Z,5140
2018-04-14T08:04:18.817Z,5112
2018-04-14T08:04:59.205Z,5088
2018-04-14T08:05:39.640Z,5036
2018-04-14T08:06:20.097Z,4940
2018-04-14T08:07:00.521Z,4920
2018-04-14T08:07:40.934Z,4900
2018-04-14T08:08:21.329Z,4900
2018-04-14T08:09:01.761Z,4868
2018-04-14T08:09:42.172Z,4776
2018-04-14T08:10:22.592Z,4756
2018-04-14T08:11:02.988Z,4812
2018-04-14T08:11:43.406Z,4812
2018-04-14T08:12:23.763Z,4788
2018-04-14T08:13:04.194Z,4692
2018-04-14T08:13:44.533Z,4628
2018-04-14T08:14:24.954Z,4732
2018-04-14T08:15:05.384Z,4764
2018-04-14T08:15:45.728Z,4764
2018-04-14T08:16:26.125Z,4740
2018-04-14T08:17:06.558Z,4696
2018-04-14T08:17:46.955Z,4600
2018-04-14T08:18:27.342Z,4504
2018-04-14T08:19:07.755Z,4268
2018-04-14T08:19:48.150Z,4404
2018-04-14T08:20:28.586Z,4508
2018-04-14T08:21:08.960Z,4424
2018-04-14T08:21:49.340Z,4340
2018-04-14T08:22:29.810Z,4032
2018-04-14T08:23:11.412Z,4528
2018-04-14T08:23:51.203Z,4728
2018-04-14T08:24:31.901Z,4720
2018-04-14T08:25:12.802Z,4688
2018-04-14T08:25:54.218Z,4620
2018-04-14T08:26:34.364Z,4640
2018-04-14T08:27:17.173Z,4568
2018-04-14T08:27:58.112Z,4524
2018-04-14T08:28:38.618Z,4484
2018-04-14T08:29:19.106Z,4504
2018-04-14T08:29:59.731Z,4480
2018-04-14T08:30:40.231Z,4448
2018-04-14T08:31:20.816Z,4436
2018-04-14T08:32:01.691Z,4408
2018-04-14T08:32:43.164Z,4380
2018-04-14T08:33:23.825Z,4352
2018-04-14T08:34:04.543Z,4356
2018-04-14T08:34:45.697Z,4360
2018-04-14T08:35:25.998Z,4344
2018-04-14T08:36:06.595Z,4344
2018-04-14T08:36:47.644Z,4340
2018-04-14T08:37:27.663Z,4328
2018-04-14T08:38:08.185Z,4324
2018-04-14T08:38:48.547Z,4316
2018-04-14T08:39:28.866Z,4312
2018-04-14T08:40:09.376Z,4304
2018-04-14T08:40:50.666Z,4312
2018-04-14T08:41:31.807Z,4316
2018-04-14T08:42:11.365Z,4304
2018-04-14T08:42:51.844Z,4292
2018-04-14T08:43:32.221Z,4296
2018-04-14T08:44:12.952Z,4288
2018-04-14T08:44:53.942Z,4280
2018-04-14T08:45:35.027Z,4136
2018-04-14T08:46:15.720Z,4064
2018-04-14T08:46:56.389Z,3824
2018-04-14T08:47:37.666Z,3872
2018-04-14T08:48:17.584Z,3852
2018-04-14T08:48:58.007Z,3672
2018-04-14T08:49:38.453Z,3160
2018-04-14T08:50:18.838Z,2912
2018-04-14T08:50:59.265Z,2780
2018-04-14T08:51:39.953Z,2676
2018-04-14T08:52:20.358Z,2984
2018-04-14T08:53:01.661Z,2396
2018-04-14T08:53:41.896Z,1948
2018-04-14T08:54:22.382Z,1916
2018-04-14T08:55:03.140Z,2012
2018-04-14T08:55:44.662Z,2364
2018-04-14T08:56:24.455Z,2392
2018-04-14T08:57:04.851Z,2380
2018-04-14T08:57:45.448Z,2220
2018-04-14T08:58:26.671Z,2180
2018-04-14T08:59:07.675Z,2856
2018-04-14T08:59:48.159Z,3464
2018-04-14T09:00:28.562Z,3664
2018-04-14T09:01:09.061Z,3820
2018-04-14T09:01:49.351Z,3852
2018-04-14T09:02:30.009Z,3936
2018-04-14T09:03:10.381Z,3964
2018-04-14T09:03:50.904Z,3956
2018-04-14T09:04:31.317Z,4076
2018-04-14T09:05:12.280Z,4168
2018-04-14T09:05:52.831Z,4248
2018-04-14T09:06:33.303Z,4244
2018-04-14T09:07:13.723Z,4284
2018-04-14T09:07:54.171Z,4312
2018-04-14T09:08:34.731Z,4272
2018-04-14T09:09:15.428Z,4112
2018-04-14T09:09:55.902Z,4004
2018-04-14T09:10:36.519Z,4068
2018-04-14T09:11:16.995Z,4084
2018-04-14T09:11:58.166Z,4060
2018-04-14T09:12:38.210Z,4036
2018-04-14T09:13:18.889Z,4036
2018-04-14T09:13:59.551Z,3828
2018-04-14T09:14:39.736Z,3412
2018-04-14T09:15:20.434Z,2952
2018-04-14T09:16:01.223Z,2244
2018-04-14T09:16:41.665Z,2232
2018-04-14T09:17:22.501Z,3160
2018-04-14T09:18:03.686Z,3560
2018-04-14T09:18:44.667Z,3624
2018-04-14T09:19:24.661Z,3492
2018-04-14T09:20:05.522Z,3568
2018-04-14T09:20:46.961Z,3700
2018-04-14T09:21:28.912Z,3716
2018-04-14T09:22:09.128Z,3640
2018-04-14T09:22:49.758Z,3092
2018-04-14T09:23:30.345Z,2368
2018-04-14T09:24:11.245Z,1992
2018-04-14T09:24:51.635Z,1884
2018-04-14T09:25:32.301Z,1936
2018-04-14T09:26:12.722Z,1944
2018-04-14T09:26:53.434Z,2056
2018-04-14T09:27:34.762Z,2244
2018-04-14T09:28:14.740Z,2304
2018-04-14T09:28:55.397Z,2204
2018-04-14T09:29:35.816Z,2068
2018-04-14T09:30:16.509Z,2204
2018-04-14T09:30:56.882Z,2420
2018-04-14T09:31:37.356Z,2556
2018-04-14T09:32:17.789Z,2720
2018-04-14T09:32:58.662Z,2908
2018-04-14T09:33:39.123Z,2960
2018-04-14T09:34:19.811Z,2960
2018-04-14T09:35:00.245Z,2976
2018-04-14T09:35:41.855Z,2928
2018-04-14T09:36:22.241Z,3004
2018-04-14T09:37:02.984Z,2920
2018-04-14T09:37:43.574Z,2864
2018-04-14T09:38:24.421Z,2668
2018-04-14T09:39:04.698Z,2680
2018-04-14T09:39:45.139Z,2772
2018-04-14T09:40:25.482Z,2800
2018-04-14T09:41:05.921Z,2656
2018-04-14T09:41:46.292Z,2628
2018-04-14T09:42:26.747Z,2516
2018-04-14T09:43:07.137Z,2428
2018-04-14T09:43:47.537Z,2360
2018-04-14T09:44:28.052Z,2356
2018-04-14T09:45:08.385Z,2288
2018-04-14T09:45:48.828Z,2188
2018-04-14T09:46:29.241Z,2132
2018-04-14T09:47:09.633Z,2072
2018-04-14T09:47:50.029Z,2052
2018-04-14T09:48:30.460Z,2120
2018-04-14T09:49:10.905Z,2184
2018-04-14T09:49:51.322Z,2144
2018-04-14T09:50:31.651Z,2072
2018-04-14T09:51:12.067Z,2048
2018-04-14T09:51:52.533Z,2036
2018-04-14T09:52:32.876Z,2072
2018-04-14T09:53:13.291Z,2092
2018-04-14T09:53:53.630Z,2112
2018-04-14T09:54:34.033Z,2176
2018-04-14T09:55:14.428Z,2380
2018-04-14T09:55:54.838Z,2536
2018-04-14T09:56:35.266Z,2648
2018-04-14T09:57:15.681Z,2848
2018-04-14T09:57:56.040Z,3128
2018-04-14T09:58:36.455Z,3284
2018-04-14T09:59:16.879Z,3268
2018-04-14T09:59:57.249Z,3252
2018-04-14T10:00:37.638Z,3020
2018-04-14T10:01:18.042Z,2872
2018-04-14T10:01:58.464Z,3128
2018-04-14T10:02:38.865Z,3496
2018-04-14T10:03:19.285Z,3416
2018-04-14T10:47:28.028Z,2060
2018-04-14T10:48:08.205Z,2040
2018-04-14T10:48:49.380Z,2016
2018-04-14T10:49:29.891Z,2012
2018-04-14T10:50:10.307Z,1984
2018-04-14T10:50:50.692Z,1956
2018-04-14T10:51:31.744Z,1956
2018-04-14T10:52:12.095Z,1976
2018-04-14T10:52:52.542Z,1976